sensor_id;sensor_type;location;lat;lon;timestamp;temperature;humidity
51029;DHT22;37054;52.054;8.600;2023-02-11T00:01:37;12.50;51.70
51029;DHT22;37054;52.054;8.600;2023-02-11T00:04:05;12.60;51.70
51029;DHT22;37054;52.054;8.600;2023-02-11T00:06:32;12.60;51.60
51029;DHT22;37054;52.054;8.600;2023-02-11T00:08:57;12.60;51.70
51029;DHT22;37054;52.054;8.600;2023-02-11T00:11:23;12.70;51.70
51029;DHT22;37054;52.054;8.600;2023-02-11T00:13:55;12.70;51.70
51029;DHT22;37054;52.054;8.600;2023-02-11T00:16:21;12.80;51.70
51029;DHT22;37054;52.054;8.600;2023-02-11T00:18:48;12.80;51.60
51029;DHT22;37054;52.054;8.600;2023-02-11T00:21:15;12.90;51.50
51029;DHT22;37054;52.054;8.600;2023-02-11T00:23:41;12.80;51.50
51029;DHT22;37054;52.054;8.600;2023-02-11T00:26:10;12.90;51.60
51029;DHT22;37054;52.054;8.600;2023-02-11T00:28:36;12.90;51.60
51029;DHT22;37054;52.054;8.600;2023-02-11T00:31:02;12.90;51.60
51029;DHT22;37054;52.054;8.600;2023-02-11T00:33:28;13.00;51.50
51029;DHT22;37054;52.054;8.600;2023-02-11T00:35:53;13.00;51.50
51029;DHT22;37054;52.054;8.600;2023-02-11T00:38:26;13.00;51.50
51029;DHT22;37054;52.054;8.600;2023-02-11T00:40:55;13.00;51.50
51029;DHT22;37054;52.054;8.600;2023-02-11T00:43:39;13.10;51.50
51029;DHT22;37054;52.054;8.600;2023-02-11T00:46:08;13.00;51.60
51029;DHT22;37054;52.054;8.600;2023-02-11T01:03:33;13.00;51.90
51029;DHT22;37054;52.054;8.600;2023-02-11T01:36:45;12.60;54.10
51029;DHT22;37054;52.054;8.600;2023-02-11T01:39:11;12.60;54.50
51029;DHT22;37054;52.054;8.600;2023-02-11T01:41:38;12.50;54.70
51029;DHT22;37054;52.054;8.600;2023-02-11T01:46:48;12.50;55.50
51029;DHT22;37054;52.054;8.600;2023-02-11T01:49:16;12.40;55.90
51029;DHT22;37054;52.054;8.600;2023-02-11T01:51:44;12.40;56.30
51029;DHT22;37054;52.054;8.600;2023-02-11T01:54:13;12.30;56.60
51029;DHT22;37054;52.054;8.600;2023-02-11T01:56:57;12.30;56.90
51029;DHT22;37054;52.054;8.600;2023-02-11T01:59:46;12.30;57.10
51029;DHT22;37054;52.054;8.600;2023-02-11T02:02:14;12.30;57.40
51029;DHT22;37054;52.054;8.600;2023-02-11T02:05:03;12.30;57.60
51029;DHT22;37054;52.054;8.600;2023-02-11T02:07:35;12.30;57.80
51029;DHT22;37054;52.054;8.600;2023-02-11T02:10:04;12.30;57.90
51029;DHT22;37054;52.054;8.600;2023-02-11T02:12:31;12.30;58.20
51029;DHT22;37054;52.054;8.600;2023-02-11T02:17:43;12.30;58.30
51029;DHT22;37054;52.054;8.600;2023-02-11T02:20:25;12.30;58.50
51029;DHT22;37054;52.054;8.600;2023-02-11T02:23:01;12.30;58.60
51029;DHT22;37054;52.054;8.600;2023-02-11T02:25:44;12.30;58.70
51029;DHT22;37054;52.054;8.600;2023-02-11T02:42:27;12.50;58.60
51029;DHT22;37054;52.054;8.600;2023-02-11T03:00:27;12.60;58.70
51029;DHT22;37054;52.054;8.600;2023-02-11T03:03:09;12.60;58.70
51029;DHT22;37054;52.054;8.600;2023-02-11T03:05:47;12.60;58.70
51029;DHT22;37054;52.054;8.600;2023-02-11T03:08:17;12.60;58.60
51029;DHT22;37054;52.054;8.600;2023-02-11T03:10:45;12.60;58.60
51029;DHT22;37054;52.054;8.600;2023-02-11T03:13:12;12.60;58.60
51029;DHT22;37054;52.054;8.600;2023-02-11T03:15:42;12.60;58.70
51029;DHT22;37054;52.054;8.600;2023-02-11T03:18:08;12.50;58.80
51029;DHT22;37054;52.054;8.600;2023-02-11T03:20:35;12.50;58.90
51029;DHT22;37054;52.054;8.600;2023-02-11T03:25:33;12.40;59.20
51029;DHT22;37054;52.054;8.600;2023-02-11T03:28:20;12.40;59.20
51029;DHT22;37054;52.054;8.600;2023-02-11T03:30:52;12.40;59.30
51029;DHT22;37054;52.054;8.600;2023-02-11T03:33:28;12.40;59.40
51029;DHT22;37054;52.054;8.600;2023-02-11T03:38:21;12.40;59.50
51029;DHT22;37054;52.054;8.600;2023-02-11T03:40:48;12.40;59.60
51029;DHT22;37054;52.054;8.600;2023-02-11T03:43:18;12.40;59.50
51029;DHT22;37054;52.054;8.600;2023-02-11T03:45:45;12.40;59.60
51029;DHT22;37054;52.054;8.600;2023-02-11T03:50:38;12.30;59.60
51029;DHT22;37054;52.054;8.600;2023-02-11T03:53:05;12.30;59.70
51029;DHT22;37054;52.054;8.600;2023-02-11T03:55:32;12.30;59.70
51029;DHT22;37054;52.054;8.600;2023-02-11T03:57:58;12.30;59.80
51029;DHT22;37054;52.054;8.600;2023-02-11T04:00:35;12.30;59.80
51029;DHT22;37054;52.054;8.600;2023-02-11T04:03:01;12.30;59.80
51029;DHT22;37054;52.054;8.600;2023-02-11T04:05:26;12.30;60.00
51029;DHT22;37054;52.054;8.600;2023-02-11T04:07:52;12.30;60.00
51029;DHT22;37054;52.054;8.600;2023-02-11T04:10:17;12.30;60.00
51029;DHT22;37054;52.054;8.600;2023-02-11T04:12:44;12.30;60.00
51029;DHT22;37054;52.054;8.600;2023-02-11T04:15:09;12.30;60.00
51029;DHT22;37054;52.054;8.600;2023-02-11T04:17:35;12.40;60.00
51029;DHT22;37054;52.054;8.600;2023-02-11T04:20:01;12.40;59.90
51029;DHT22;37054;52.054;8.600;2023-02-11T04:22:26;12.40;59.90
51029;DHT22;37054;52.054;8.600;2023-02-11T04:24:52;12.40;59.90
51029;DHT22;37054;52.054;8.600;2023-02-11T04:27:18;12.40;60.00
51029;DHT22;37054;52.054;8.600;2023-02-11T04:29:43;12.40;59.90
51029;DHT22;37054;52.054;8.600;2023-02-11T04:32:18;12.40;59.90
51029;DHT22;37054;52.054;8.600;2023-02-11T04:34:44;12.40;59.90
51029;DHT22;37054;52.054;8.600;2023-02-11T04:37:09;12.50;59.90
51029;DHT22;37054;52.054;8.600;2023-02-11T04:39:35;12.50;59.80
51029;DHT22;37054;52.054;8.600;2023-02-11T04:42:00;12.50;59.90
51029;DHT22;37054;52.054;8.600;2023-02-11T04:44:26;12.60;59.80
51029;DHT22;37054;52.054;8.600;2023-02-11T04:46:52;12.60;59.60
51029;DHT22;37054;52.054;8.600;2023-02-11T04:49:17;12.60;59.60
51029;DHT22;37054;52.054;8.600;2023-02-11T04:51:43;12.60;59.50
51029;DHT22;37054;52.054;8.600;2023-02-11T04:54:09;12.60;59.50
51029;DHT22;37054;52.054;8.600;2023-02-11T04:56:35;12.70;59.40
51029;DHT22;37054;52.054;8.600;2023-02-11T04:59:01;12.70;59.50
51029;DHT22;37054;52.054;8.600;2023-02-11T05:01:26;12.70;59.50
51029;DHT22;37054;52.054;8.600;2023-02-11T05:03:52;12.70;59.30
51029;DHT22;37054;52.054;8.600;2023-02-11T05:06:17;12.70;59.40
51029;DHT22;37054;52.054;8.600;2023-02-11T05:08:43;12.80;59.40
51029;DHT22;37054;52.054;8.600;2023-02-11T05:11:13;12.70;59.40
51029;DHT22;37054;52.054;8.600;2023-02-11T05:13:39;12.70;59.40
51029;DHT22;37054;52.054;8.600;2023-02-11T05:16:05;12.80;59.30
51029;DHT22;37054;52.054;8.600;2023-02-11T05:18:30;12.80;59.40
51029;DHT22;37054;52.054;8.600;2023-02-11T05:20:56;12.80;59.30
51029;DHT22;37054;52.054;8.600;2023-02-11T05:23:22;12.80;59.30
51029;DHT22;37054;52.054;8.600;2023-02-11T05:25:47;12.80;59.30
51029;DHT22;37054;52.054;8.600;2023-02-11T05:28:13;12.80;59.30
51029;DHT22;37054;52.054;8.600;2023-02-11T05:30:39;12.80;59.10
51029;DHT22;37054;52.054;8.600;2023-02-11T05:33:04;12.80;59.10
51029;DHT22;37054;52.054;8.600;2023-02-11T05:35:30;12.80;59.10
51029;DHT22;37054;52.054;8.600;2023-02-11T05:37:55;12.80;59.10
51029;DHT22;37054;52.054;8.600;2023-02-11T05:40:22;12.80;59.10
51029;DHT22;37054;52.054;8.600;2023-02-11T05:42:48;12.80;59.10
51029;DHT22;37054;52.054;8.600;2023-02-11T05:45:13;12.80;59.00
51029;DHT22;37054;52.054;8.600;2023-02-11T05:47:39;12.80;59.00
51029;DHT22;37054;52.054;8.600;2023-02-11T05:50:05;12.90;59.00
51029;DHT22;37054;52.054;8.600;2023-02-11T05:52:30;12.90;59.10
51029;DHT22;37054;52.054;8.600;2023-02-11T05:54:57;12.80;59.10
51029;DHT22;37054;52.054;8.600;2023-02-11T05:57:23;12.90;58.90
51029;DHT22;37054;52.054;8.600;2023-02-11T05:59:49;12.90;59.00
51029;DHT22;37054;52.054;8.600;2023-02-11T06:02:14;12.90;59.10
51029;DHT22;37054;52.054;8.600;2023-02-11T06:04:40;12.90;59.00
51029;DHT22;37054;52.054;8.600;2023-02-11T06:07:05;12.90;59.10
51029;DHT22;37054;52.054;8.600;2023-02-11T06:09:31;13.00;58.90
51029;DHT22;37054;52.054;8.600;2023-02-11T06:11:56;12.90;59.00
51029;DHT22;37054;52.054;8.600;2023-02-11T06:14:22;12.90;58.90
51029;DHT22;37054;52.054;8.600;2023-02-11T06:16:48;13.00;58.90
51029;DHT22;37054;52.054;8.600;2023-02-11T06:19:13;13.00;59.00
51029;DHT22;37054;52.054;8.600;2023-02-11T06:21:39;13.00;59.00
51029;DHT22;37054;52.054;8.600;2023-02-11T06:24:04;13.00;58.90
51029;DHT22;37054;52.054;8.600;2023-02-11T06:26:31;13.00;59.00
51029;DHT22;37054;52.054;8.600;2023-02-11T06:29:00;13.00;58.70
51029;DHT22;37054;52.054;8.600;2023-02-11T06:31:25;13.00;58.90
51029;DHT22;37054;52.054;8.600;2023-02-11T06:33:51;13.00;58.90
51029;DHT22;37054;52.054;8.600;2023-02-11T06:36:19;12.90;58.80
51029;DHT22;37054;52.054;8.600;2023-02-11T06:38:45;13.00;58.90
51029;DHT22;37054;52.054;8.600;2023-02-11T06:41:12;13.00;58.70
51029;DHT22;37054;52.054;8.600;2023-02-11T06:43:38;13.00;58.90
51029;DHT22;37054;52.054;8.600;2023-02-11T06:46:03;13.00;58.80
51029;DHT22;37054;52.054;8.600;2023-02-11T06:48:29;13.00;58.90
51029;DHT22;37054;52.054;8.600;2023-02-11T06:50:54;13.00;58.80
51029;DHT22;37054;52.054;8.600;2023-02-11T06:53:20;13.10;58.80
51029;DHT22;37054;52.054;8.600;2023-02-11T06:55:48;13.00;58.60
51029;DHT22;37054;52.054;8.600;2023-02-11T06:58:16;13.00;58.70
51029;DHT22;37054;52.054;8.600;2023-02-11T07:00:42;13.10;58.80
51029;DHT22;37054;52.054;8.600;2023-02-11T07:03:09;13.10;58.60
51029;DHT22;37054;52.054;8.600;2023-02-11T07:05:34;13.10;58.70
51029;DHT22;37054;52.054;8.600;2023-02-11T07:08:01;13.10;58.50
51029;DHT22;37054;52.054;8.600;2023-02-11T07:10:26;13.10;58.60
51029;DHT22;37054;52.054;8.600;2023-02-11T07:12:52;13.10;58.60
51029;DHT22;37054;52.054;8.600;2023-02-11T07:15:17;13.10;58.70
51029;DHT22;37054;52.054;8.600;2023-02-11T07:17:43;13.10;58.70
51029;DHT22;37054;52.054;8.600;2023-02-11T07:20:09;13.10;58.80
51029;DHT22;37054;52.054;8.600;2023-02-11T07:22:36;13.10;58.70
51029;DHT22;37054;52.054;8.600;2023-02-11T07:25:02;13.10;58.40
51029;DHT22;37054;52.054;8.600;2023-02-11T07:27:28;13.10;58.50
51029;DHT22;37054;52.054;8.600;2023-02-11T07:29:54;13.20;58.70
51029;DHT22;37054;52.054;8.600;2023-02-11T07:32:19;13.10;58.70
51029;DHT22;37054;52.054;8.600;2023-02-11T07:34:46;13.20;58.70
51029;DHT22;37054;52.054;8.600;2023-02-11T07:37:12;13.20;58.60
51029;DHT22;37054;52.054;8.600;2023-02-11T07:39:42;13.20;58.50
51029;DHT22;37054;52.054;8.600;2023-02-11T07:42:08;13.20;58.60
51029;DHT22;37054;52.054;8.600;2023-02-11T07:44:34;13.20;58.40
51029;DHT22;37054;52.054;8.600;2023-02-11T07:47:11;13.20;58.50
51029;DHT22;37054;52.054;8.600;2023-02-11T07:49:36;13.30;58.50
51029;DHT22;37054;52.054;8.600;2023-02-11T07:52:02;13.30;58.50
51029;DHT22;37054;52.054;8.600;2023-02-11T07:54:28;13.20;58.40
51029;DHT22;37054;52.054;8.600;2023-02-11T07:56:53;13.20;58.40
51029;DHT22;37054;52.054;8.600;2023-02-11T07:59:19;13.20;58.40
51029;DHT22;37054;52.054;8.600;2023-02-11T08:01:44;13.20;58.40
51029;DHT22;37054;52.054;8.600;2023-02-11T08:04:10;13.30;58.40
51029;DHT22;37054;52.054;8.600;2023-02-11T08:06:38;13.30;58.30
51029;DHT22;37054;52.054;8.600;2023-02-11T08:09:06;13.30;58.50
51029;DHT22;37054;52.054;8.600;2023-02-11T08:11:32;13.30;58.30
51029;DHT22;37054;52.054;8.600;2023-02-11T08:13:57;13.30;58.30
51029;DHT22;37054;52.054;8.600;2023-02-11T08:16:27;13.30;58.30
51029;DHT22;37054;52.054;8.600;2023-02-11T08:18:54;13.40;58.40
51029;DHT22;37054;52.054;8.600;2023-02-11T08:21:20;13.40;58.30
51029;DHT22;37054;52.054;8.600;2023-02-11T08:23:46;13.40;58.20
51029;DHT22;37054;52.054;8.600;2023-02-11T08:26:13;13.50;58.20
51029;DHT22;37054;52.054;8.600;2023-02-11T08:28:39;13.50;58.20
51029;DHT22;37054;52.054;8.600;2023-02-11T08:31:09;13.50;58.10
51029;DHT22;37054;52.054;8.600;2023-02-11T08:33:35;13.50;58.00
51029;DHT22;37054;52.054;8.600;2023-02-11T08:36:06;13.50;57.90
51029;DHT22;37054;52.054;8.600;2023-02-11T08:38:32;13.50;58.00
51029;DHT22;37054;52.054;8.600;2023-02-11T08:40:58;13.50;58.30
51029;DHT22;37054;52.054;8.600;2023-02-11T08:43:24;13.50;58.10
51029;DHT22;37054;52.054;8.600;2023-02-11T08:45:50;13.50;58.00
51029;DHT22;37054;52.054;8.600;2023-02-11T08:48:16;13.50;58.00
51029;DHT22;37054;52.054;8.600;2023-02-11T08:50:41;13.50;57.90
51029;DHT22;37054;52.054;8.600;2023-02-11T08:53:07;13.50;58.10
51029;DHT22;37054;52.054;8.600;2023-02-11T08:55:33;13.60;58.00
51029;DHT22;37054;52.054;8.600;2023-02-11T08:57:58;13.60;57.90
51029;DHT22;37054;52.054;8.600;2023-02-11T09:00:24;13.70;57.90
51029;DHT22;37054;52.054;8.600;2023-02-11T09:02:50;13.70;58.00
51029;DHT22;37054;52.054;8.600;2023-02-11T09:05:21;13.70;57.90
51029;DHT22;37054;52.054;8.600;2023-02-11T09:07:47;13.80;57.90
51029;DHT22;37054;52.054;8.600;2023-02-11T09:10:13;13.80;57.90
51029;DHT22;37054;52.054;8.600;2023-02-11T09:12:39;13.80;57.80
51029;DHT22;37054;52.054;8.600;2023-02-11T09:15:05;13.80;57.80
51029;DHT22;37054;52.054;8.600;2023-02-11T09:17:30;13.90;57.70
51029;DHT22;37054;52.054;8.600;2023-02-11T09:19:56;13.90;57.60
51029;DHT22;37054;52.054;8.600;2023-02-11T09:22:22;14.00;57.40
51029;DHT22;37054;52.054;8.600;2023-02-11T09:24:47;14.00;57.50
51029;DHT22;37054;52.054;8.600;2023-02-11T09:27:13;14.00;57.60
51029;DHT22;37054;52.054;8.600;2023-02-11T09:29:38;14.10;57.60
51029;DHT22;37054;52.054;8.600;2023-02-11T09:32:04;14.00;57.50
51029;DHT22;37054;52.054;8.600;2023-02-11T09:34:30;14.10;57.40
51029;DHT22;37054;52.054;8.600;2023-02-11T09:36:56;14.10;57.40
51029;DHT22;37054;52.054;8.600;2023-02-11T09:39:21;14.10;57.40
51029;DHT22;37054;52.054;8.600;2023-02-11T09:44:23;14.20;57.40
51029;DHT22;37054;52.054;8.600;2023-02-11T09:47:53;14.20;57.50
51029;DHT22;37054;52.054;8.600;2023-02-11T09:49:49;14.20;57.30
51029;DHT22;37054;52.054;8.600;2023-02-11T09:52:23;14.20;57.30
51029;DHT22;37054;52.054;8.600;2023-02-11T09:54:59;14.30;57.30
51029;DHT22;37054;52.054;8.600;2023-02-11T09:57:25;14.20;57.40
51029;DHT22;37054;52.054;8.600;2023-02-11T09:59:54;14.20;57.30
51029;DHT22;37054;52.054;8.600;2023-02-11T10:05:00;14.30;57.30
51029;DHT22;37054;52.054;8.600;2023-02-11T10:07:32;14.30;57.40
51029;DHT22;37054;52.054;8.600;2023-02-11T10:10:27;14.30;57.40
51029;DHT22;37054;52.054;8.600;2023-02-11T10:12:54;14.40;57.30
51029;DHT22;37054;52.054;8.600;2023-02-11T10:22:59;14.40;57.30
51029;DHT22;37054;52.054;8.600;2023-02-11T10:25:36;14.50;57.10
51029;DHT22;37054;52.054;8.600;2023-02-11T10:28:15;14.50;57.00
51029;DHT22;37054;52.054;8.600;2023-02-11T10:30:48;14.50;57.10
51029;DHT22;37054;52.054;8.600;2023-02-11T10:33:27;14.50;57.40
51029;DHT22;37054;52.054;8.600;2023-02-11T10:35:56;14.40;57.10
51029;DHT22;37054;52.054;8.600;2023-02-11T10:38:22;14.40;57.10
51029;DHT22;37054;52.054;8.600;2023-02-11T10:40:48;14.40;57.10
51029;DHT22;37054;52.054;8.600;2023-02-11T10:43:16;14.40;57.10
51029;DHT22;37054;52.054;8.600;2023-02-11T10:45:46;14.40;57.20
51029;DHT22;37054;52.054;8.600;2023-02-11T10:53:35;14.40;57.50
51029;DHT22;37054;52.054;8.600;2023-02-11T10:56:00;14.50;57.60
51029;DHT22;37054;52.054;8.600;2023-02-11T10:58:30;14.50;57.50
51029;DHT22;37054;52.054;8.600;2023-02-11T11:00:58;14.50;57.50
51029;DHT22;37054;52.054;8.600;2023-02-11T11:03:25;14.40;57.70
51029;DHT22;37054;52.054;8.600;2023-02-11T11:05:58;14.40;57.80
51029;DHT22;37054;52.054;8.600;2023-02-11T11:08:37;14.40;57.90
51029;DHT22;37054;52.054;8.600;2023-02-11T11:11:04;14.50;58.00
51029;DHT22;37054;52.054;8.600;2023-02-11T11:13:52;14.50;58.00
51029;DHT22;37054;52.054;8.600;2023-02-11T11:16:23;14.50;58.20
51029;DHT22;37054;52.054;8.600;2023-02-11T11:19:14;14.60;58.10
51029;DHT22;37054;52.054;8.600;2023-02-11T11:21:45;14.60;58.20
51029;DHT22;37054;52.054;8.600;2023-02-11T11:27:02;14.60;58.20
51029;DHT22;37054;52.054;8.600;2023-02-11T15:33:04;16.30;53.40
51029;DHT22;37054;52.054;8.600;2023-02-11T15:36:01;16.30;53.30
51029;DHT22;37054;52.054;8.600;2023-02-11T15:41:44;16.30;53.20
51029;DHT22;37054;52.054;8.600;2023-02-11T15:50:17;16.20;53.10
51029;DHT22;37054;52.054;8.600;2023-02-11T15:58:59;16.20;53.40
51029;DHT22;37054;52.054;8.600;2023-02-11T16:44:24;15.80;53.90
51029;DHT22;37054;52.054;8.600;2023-02-11T16:47:02;15.80;54.00
51029;DHT22;37054;52.054;8.600;2023-02-11T16:49:57;15.80;54.10
51029;DHT22;37054;52.054;8.600;2023-02-11T18:29:25;15.40;54.80
51029;DHT22;37054;52.054;8.600;2023-02-11T18:32:03;15.40;54.80
51029;DHT22;37054;52.054;8.600;2023-02-11T18:34:31;15.40;54.70
51029;DHT22;37054;52.054;8.600;2023-02-11T18:37:03;15.40;54.70
51029;DHT22;37054;52.054;8.600;2023-02-11T18:39:33;15.40;54.60
51029;DHT22;37054;52.054;8.600;2023-02-11T18:45:09;15.40;54.60
51029;DHT22;37054;52.054;8.600;2023-02-11T18:47:57;15.40;54.70
51029;DHT22;37054;52.054;8.600;2023-02-11T18:50:46;15.40;54.70
51029;DHT22;37054;52.054;8.600;2023-02-11T18:53:50;15.40;54.70
51029;DHT22;37054;52.054;8.600;2023-02-11T18:56:26;15.40;54.70
51029;DHT22;37054;52.054;8.600;2023-02-11T18:59:12;15.40;54.80
51029;DHT22;37054;52.054;8.600;2023-02-11T19:02:01;15.40;54.80
51029;DHT22;37054;52.054;8.600;2023-02-11T19:04:32;15.40;54.80
51029;DHT22;37054;52.054;8.600;2023-02-11T23:17:35;15.50;55.30
51029;DHT22;37054;52.054;8.600;2023-02-11T23:48:49;15.40;55.30
51029;DHT22;37054;52.054;8.600;2023-02-11T23:51:15;15.40;55.20
51029;DHT22;37054;52.054;8.600;2023-02-11T23:53:41;15.50;55.30
51029;DHT22;37054;52.054;8.600;2023-02-11T23:56:27;15.40;55.30
51029;DHT22;37054;52.054;8.600;2023-02-11T23:59:09;15.40;55.30
